sensor_id;sensor_type;location;lat;lon;timestamp;temperature;humidity
18160;DHT22;9205;52.032;4.314;2022-10-16T00:00:42;14.80;99.90
18160;DHT22;9205;52.032;4.314;2022-10-16T00:03:12;14.90;99.90
18160;DHT22;9205;52.032;4.314;2022-10-16T00:05:42;14.90;99.90
18160;DHT22;9205;52.032;4.314;2022-10-16T00:08:11;14.90;99.90
18160;DHT22;9205;52.032;4.314;2022-10-16T00:10:40;14.80;99.90
18160;DHT22;9205;52.032;4.314;2022-10-16T00:13:08;14.80;99.90
18160;DHT22;9205;52.032;4.314;2022-10-16T00:15:36;14.80;99.90
18160;DHT22;9205;52.032;4.314;2022-10-16T00:18:05;14.80;99.90
18160;DHT22;9205;52.032;4.314;2022-10-16T00:20:35;14.80;99.90
18160;DHT22;9205;52.032;4.314;2022-10-16T00:23:03;14.80;99.90
18160;DHT22;9205;52.032;4.314;2022-10-16T00:25:31;14.80;99.90
18160;DHT22;9205;52.032;4.314;2022-10-16T00:27:59;14.70;99.90
18160;DHT22;9205;52.032;4.314;2022-10-16T00:30:27;14.80;99.90
18160;DHT22;9205;52.032;4.314;2022-10-16T00:32:54;14.80;99.90
18160;DHT22;9205;52.032;4.314;2022-10-16T00:35:22;14.80;99.90
18160;DHT22;9205;52.032;4.314;2022-10-16T00:37:50;14.70;99.90
18160;DHT22;9205;52.032;4.314;2022-10-16T00:40:17;14.70;99.90
18160;DHT22;9205;52.032;4.314;2022-10-16T00:42:45;14.80;99.90
18160;DHT22;9205;52.032;4.314;2022-10-16T00:45:12;14.70;99.90
18160;DHT22;9205;52.032;4.314;2022-10-16T00:47:43;14.80;99.90
18160;DHT22;9205;52.032;4.314;2022-10-16T00:50:21;14.80;99.90
18160;DHT22;9205;52.032;4.314;2022-10-16T00:52:54;14.80;99.90
18160;DHT22;9205;52.032;4.314;2022-10-16T00:55:23;14.70;99.90
18160;DHT22;9205;52.032;4.314;2022-10-16T00:57:51;14.80;99.90
18160;DHT22;9205;52.032;4.314;2022-10-16T01:00:21;14.70;99.90
18160;DHT22;9205;52.032;4.314;2022-10-16T01:02:52;14.70;99.90
18160;DHT22;9205;52.032;4.314;2022-10-16T01:05:21;14.70;99.90
18160;DHT22;9205;52.032;4.314;2022-10-16T01:07:59;14.80;99.90
18160;DHT22;9205;52.032;4.314;2022-10-16T01:10:36;14.70;99.90
18160;DHT22;9205;52.032;4.314;2022-10-16T01:13:09;14.60;99.90
18160;DHT22;9205;52.032;4.314;2022-10-16T01:15:44;14.70;99.90
18160;DHT22;9205;52.032;4.314;2022-10-16T01:18:27;14.60;99.90
18160;DHT22;9205;52.032;4.314;2022-10-16T01:21:02;14.60;99.90
18160;DHT22;9205;52.032;4.314;2022-10-16T01:23:42;14.50;99.90
18160;DHT22;9205;52.032;4.314;2022-10-16T01:26:24;14.70;99.90
18160;DHT22;9205;52.032;4.314;2022-10-16T01:29:08;14.60;99.90
18160;DHT22;9205;52.032;4.314;2022-10-16T01:31:41;14.50;99.90
18160;DHT22;9205;52.032;4.314;2022-10-16T01:34:17;14.60;99.90
18160;DHT22;9205;52.032;4.314;2022-10-16T01:36:51;14.50;99.90
18160;DHT22;9205;52.032;4.314;2022-10-16T01:39:24;14.50;99.90
18160;DHT22;9205;52.032;4.314;2022-10-16T01:42:00;14.50;99.90
18160;DHT22;9205;52.032;4.314;2022-10-16T01:44:34;14.50;99.90
18160;DHT22;9205;52.032;4.314;2022-10-16T01:47:04;14.50;99.90
18160;DHT22;9205;52.032;4.314;2022-10-16T01:49:36;14.40;99.90
18160;DHT22;9205;52.032;4.314;2022-10-16T01:52:07;14.50;99.90
18160;DHT22;9205;52.032;4.314;2022-10-16T01:54:41;14.50;99.90
18160;DHT22;9205;52.032;4.314;2022-10-16T01:57:12;14.40;99.90
18160;DHT22;9205;52.032;4.314;2022-10-16T01:59:46;14.50;99.90
18160;DHT22;9205;52.032;4.314;2022-10-16T02:02:19;14.40;99.90
18160;DHT22;9205;52.032;4.314;2022-10-16T02:04:51;14.50;99.90
18160;DHT22;9205;52.032;4.314;2022-10-16T02:07:22;14.40;99.90
18160;DHT22;9205;52.032;4.314;2022-10-16T02:09:49;14.40;99.90
18160;DHT22;9205;52.032;4.314;2022-10-16T02:12:24;14.30;99.90
18160;DHT22;9205;52.032;4.314;2022-10-16T02:14:55;14.40;99.90
18160;DHT22;9205;52.032;4.314;2022-10-16T02:17:23;14.50;99.90
18160;DHT22;9205;52.032;4.314;2022-10-16T02:19:54;14.40;99.90
18160;DHT22;9205;52.032;4.314;2022-10-16T02:22:27;14.40;99.90
18160;DHT22;9205;52.032;4.314;2022-10-16T02:25:01;14.30;99.90
18160;DHT22;9205;52.032;4.314;2022-10-16T02:27:35;14.40;99.90
18160;DHT22;9205;52.032;4.314;2022-10-16T02:30:11;14.40;99.90
18160;DHT22;9205;52.032;4.314;2022-10-16T02:32:46;14.30;99.90
18160;DHT22;9205;52.032;4.314;2022-10-16T02:35:17;14.40;99.90
18160;DHT22;9205;52.032;4.314;2022-10-16T02:37:47;14.40;99.90
18160;DHT22;9205;52.032;4.314;2022-10-16T02:40:16;14.30;99.90
18160;DHT22;9205;52.032;4.314;2022-10-16T02:42:44;14.30;99.90
18160;DHT22;9205;52.032;4.314;2022-10-16T02:45:12;14.30;99.90
18160;DHT22;9205;52.032;4.314;2022-10-16T02:47:40;14.30;99.90
18160;DHT22;9205;52.032;4.314;2022-10-16T02:50:07;14.40;99.90
18160;DHT22;9205;52.032;4.314;2022-10-16T02:52:35;14.40;99.90
18160;DHT22;9205;52.032;4.314;2022-10-16T02:55:02;14.40;99.90
18160;DHT22;9205;52.032;4.314;2022-10-16T02:57:30;14.30;99.90
18160;DHT22;9205;52.032;4.314;2022-10-16T02:59:58;14.40;99.90
18160;DHT22;9205;52.032;4.314;2022-10-16T03:02:26;14.40;99.90
18160;DHT22;9205;52.032;4.314;2022-10-16T03:04:54;14.40;99.90
18160;DHT22;9205;52.032;4.314;2022-10-16T03:07:21;14.40;99.90
18160;DHT22;9205;52.032;4.314;2022-10-16T03:09:48;14.40;99.90
18160;DHT22;9205;52.032;4.314;2022-10-16T03:12:16;14.30;99.90
18160;DHT22;9205;52.032;4.314;2022-10-16T03:14:43;14.40;99.90
18160;DHT22;9205;52.032;4.314;2022-10-16T03:17:10;14.50;99.90
18160;DHT22;9205;52.032;4.314;2022-10-16T03:19:40;14.40;99.90
18160;DHT22;9205;52.032;4.314;2022-10-16T03:22:07;14.50;99.90
18160;DHT22;9205;52.032;4.314;2022-10-16T03:24:34;14.50;99.90
18160;DHT22;9205;52.032;4.314;2022-10-16T03:27:01;14.50;99.90
18160;DHT22;9205;52.032;4.314;2022-10-16T03:29:29;14.50;99.90
18160;DHT22;9205;52.032;4.314;2022-10-16T03:31:57;14.40;99.90
18160;DHT22;9205;52.032;4.314;2022-10-16T03:34:24;14.40;99.90
18160;DHT22;9205;52.032;4.314;2022-10-16T03:36:53;14.40;99.90
18160;DHT22;9205;52.032;4.314;2022-10-16T03:39:21;14.50;99.90
18160;DHT22;9205;52.032;4.314;2022-10-16T03:41:48;14.40;99.90
18160;DHT22;9205;52.032;4.314;2022-10-16T03:44:15;14.40;99.90
18160;DHT22;9205;52.032;4.314;2022-10-16T03:46:43;14.50;99.90
18160;DHT22;9205;52.032;4.314;2022-10-16T03:49:10;14.40;99.90
18160;DHT22;9205;52.032;4.314;2022-10-16T03:51:37;14.40;99.90
18160;DHT22;9205;52.032;4.314;2022-10-16T03:54:06;14.40;99.90
18160;DHT22;9205;52.032;4.314;2022-10-16T03:56:33;14.50;99.90
18160;DHT22;9205;52.032;4.314;2022-10-16T03:59:00;14.40;99.90
18160;DHT22;9205;52.032;4.314;2022-10-16T04:01:27;14.40;99.90
18160;DHT22;9205;52.032;4.314;2022-10-16T04:03:55;14.50;99.90
18160;DHT22;9205;52.032;4.314;2022-10-16T04:06:22;14.40;99.90
18160;DHT22;9205;52.032;4.314;2022-10-16T04:08:49;14.40;99.90
18160;DHT22;9205;52.032;4.314;2022-10-16T04:11:18;14.40;99.90
18160;DHT22;9205;52.032;4.314;2022-10-16T04:13:45;14.40;99.90
18160;DHT22;9205;52.032;4.314;2022-10-16T04:16:12;14.40;99.90
18160;DHT22;9205;52.032;4.314;2022-10-16T04:18:40;14.40;99.90
18160;DHT22;9205;52.032;4.314;2022-10-16T04:21:07;14.50;99.90
18160;DHT22;9205;52.032;4.314;2022-10-16T04:23:34;14.50;99.90
18160;DHT22;9205;52.032;4.314;2022-10-16T04:26:01;14.40;99.90
18160;DHT22;9205;52.032;4.314;2022-10-16T04:28:30;14.60;99.90
18160;DHT22;9205;52.032;4.314;2022-10-16T04:30:57;14.40;99.90
18160;DHT22;9205;52.032;4.314;2022-10-16T04:33:24;14.50;99.90
18160;DHT22;9205;52.032;4.314;2022-10-16T04:35:56;14.40;99.90
18160;DHT22;9205;52.032;4.314;2022-10-16T04:38:24;14.50;99.90
18160;DHT22;9205;52.032;4.314;2022-10-16T04:40:51;14.40;99.90
18160;DHT22;9205;52.032;4.314;2022-10-16T04:43:19;14.50;99.90
18160;DHT22;9205;52.032;4.314;2022-10-16T04:45:48;14.30;99.90
18160;DHT22;9205;52.032;4.314;2022-10-16T04:48:17;14.40;99.90
18160;DHT22;9205;52.032;4.314;2022-10-16T04:50:45;14.40;99.90
18160;DHT22;9205;52.032;4.314;2022-10-16T04:54:20;14.50;99.90
18160;DHT22;9205;52.032;4.314;2022-10-16T04:57:39;14.30;99.90
18160;DHT22;9205;52.032;4.314;2022-10-16T05:00:35;14.30;99.90
18160;DHT22;9205;52.032;4.314;2022-10-16T05:03:10;14.30;99.90
18160;DHT22;9205;52.032;4.314;2022-10-16T05:05:43;14.10;99.90
18160;DHT22;9205;52.032;4.314;2022-10-16T05:08:11;14.20;99.90
18160;DHT22;9205;52.032;4.314;2022-10-16T05:10:42;14.20;99.90
18160;DHT22;9205;52.032;4.314;2022-10-16T05:13:10;14.10;99.90
18160;DHT22;9205;52.032;4.314;2022-10-16T05:15:38;14.10;99.90
18160;DHT22;9205;52.032;4.314;2022-10-16T05:18:05;14.20;99.90
18160;DHT22;9205;52.032;4.314;2022-10-16T05:20:34;14.30;99.90
18160;DHT22;9205;52.032;4.314;2022-10-16T05:23:01;14.10;99.90
18160;DHT22;9205;52.032;4.314;2022-10-16T05:25:29;14.10;99.90
18160;DHT22;9205;52.032;4.314;2022-10-16T05:27:56;14.20;99.90
18160;DHT22;9205;52.032;4.314;2022-10-16T05:30:23;14.00;99.90
18160;DHT22;9205;52.032;4.314;2022-10-16T05:32:51;14.10;99.90
18160;DHT22;9205;52.032;4.314;2022-10-16T05:35:18;13.90;99.90
18160;DHT22;9205;52.032;4.314;2022-10-16T05:37:48;13.90;99.90
18160;DHT22;9205;52.032;4.314;2022-10-16T05:40:16;14.10;99.90
18160;DHT22;9205;52.032;4.314;2022-10-16T05:42:43;14.00;99.90
18160;DHT22;9205;52.032;4.314;2022-10-16T05:45:11;14.10;99.90
18160;DHT22;9205;52.032;4.314;2022-10-16T05:47:38;14.00;99.90
18160;DHT22;9205;52.032;4.314;2022-10-16T05:50:07;14.00;99.90
18160;DHT22;9205;52.032;4.314;2022-10-16T05:52:34;14.00;99.90
18160;DHT22;9205;52.032;4.314;2022-10-16T05:55:04;14.10;99.90
18160;DHT22;9205;52.032;4.314;2022-10-16T05:57:32;14.10;99.90
18160;DHT22;9205;52.032;4.314;2022-10-16T05:59:59;14.10;99.90
18160;DHT22;9205;52.032;4.314;2022-10-16T06:02:27;14.00;99.90
18160;DHT22;9205;52.032;4.314;2022-10-16T06:04:54;14.10;99.90
18160;DHT22;9205;52.032;4.314;2022-10-16T06:07:22;13.90;99.90
18160;DHT22;9205;52.032;4.314;2022-10-16T06:09:50;14.10;99.90
18160;DHT22;9205;52.032;4.314;2022-10-16T06:12:20;13.90;99.90
18160;DHT22;9205;52.032;4.314;2022-10-16T06:14:50;13.90;99.90
18160;DHT22;9205;52.032;4.314;2022-10-16T06:17:17;14.00;99.90
18160;DHT22;9205;52.032;4.314;2022-10-16T06:19:44;14.00;99.90
18160;DHT22;9205;52.032;4.314;2022-10-16T06:22:11;14.00;99.90
18160;DHT22;9205;52.032;4.314;2022-10-16T06:24:39;14.00;99.90
18160;DHT22;9205;52.032;4.314;2022-10-16T06:27:06;13.90;99.90
18160;DHT22;9205;52.032;4.314;2022-10-16T06:29:37;14.00;99.90
18160;DHT22;9205;52.032;4.314;2022-10-16T06:32:04;13.80;99.90
18160;DHT22;9205;52.032;4.314;2022-10-16T06:34:32;13.80;99.90
18160;DHT22;9205;52.032;4.314;2022-10-16T06:36:59;13.80;99.90
18160;DHT22;9205;52.032;4.314;2022-10-16T06:39:26;14.00;99.90
18160;DHT22;9205;52.032;4.314;2022-10-16T06:41:53;14.00;99.90
18160;DHT22;9205;52.032;4.314;2022-10-16T06:44:21;14.00;99.90
18160;DHT22;9205;52.032;4.314;2022-10-16T06:46:50;13.90;99.90
18160;DHT22;9205;52.032;4.314;2022-10-16T06:49:17;14.10;99.90
18160;DHT22;9205;52.032;4.314;2022-10-16T06:51:48;14.00;99.90
18160;DHT22;9205;52.032;4.314;2022-10-16T06:54:16;13.80;99.90
18160;DHT22;9205;52.032;4.314;2022-10-16T06:56:43;13.90;99.90
18160;DHT22;9205;52.032;4.314;2022-10-16T06:59:11;13.90;99.90
18160;DHT22;9205;52.032;4.314;2022-10-16T07:01:38;13.80;99.90
18160;DHT22;9205;52.032;4.314;2022-10-16T07:04:07;13.80;99.90
18160;DHT22;9205;52.032;4.314;2022-10-16T07:06:37;14.00;99.90
18160;DHT22;9205;52.032;4.314;2022-10-16T07:09:06;13.90;99.90
18160;DHT22;9205;52.032;4.314;2022-10-16T07:11:37;14.10;99.90
18160;DHT22;9205;52.032;4.314;2022-10-16T07:14:14;13.90;99.90
18160;DHT22;9205;52.032;4.314;2022-10-16T07:16:43;13.90;99.90
18160;DHT22;9205;52.032;4.314;2022-10-16T07:19:12;14.00;99.90
18160;DHT22;9205;52.032;4.314;2022-10-16T07:21:41;14.00;99.90
18160;DHT22;9205;52.032;4.314;2022-10-16T07:24:12;13.90;99.90
18160;DHT22;9205;52.032;4.314;2022-10-16T07:26:42;13.90;99.90
18160;DHT22;9205;52.032;4.314;2022-10-16T07:29:12;14.10;99.90
18160;DHT22;9205;52.032;4.314;2022-10-16T07:31:41;14.10;99.90
18160;DHT22;9205;52.032;4.314;2022-10-16T07:34:10;14.00;99.90
18160;DHT22;9205;52.032;4.314;2022-10-16T07:36:40;14.10;99.90
18160;DHT22;9205;52.032;4.314;2022-10-16T07:39:08;14.30;99.90
18160;DHT22;9205;52.032;4.314;2022-10-16T07:41:35;14.30;99.90
18160;DHT22;9205;52.032;4.314;2022-10-16T07:44:03;14.10;99.90
18160;DHT22;9205;52.032;4.314;2022-10-16T07:46:32;14.20;99.90
18160;DHT22;9205;52.032;4.314;2022-10-16T07:49:01;14.30;99.90
18160;DHT22;9205;52.032;4.314;2022-10-16T07:51:33;14.30;99.90
18160;DHT22;9205;52.032;4.314;2022-10-16T07:54:00;14.40;99.90
18160;DHT22;9205;52.032;4.314;2022-10-16T07:56:27;14.30;99.90
18160;DHT22;9205;52.032;4.314;2022-10-16T07:58:57;14.40;99.90
18160;DHT22;9205;52.032;4.314;2022-10-16T08:01:24;14.40;99.90
18160;DHT22;9205;52.032;4.314;2022-10-16T08:03:52;14.40;99.90
18160;DHT22;9205;52.032;4.314;2022-10-16T08:06:21;14.50;99.90
18160;DHT22;9205;52.032;4.314;2022-10-16T08:08:50;14.40;99.90
18160;DHT22;9205;52.032;4.314;2022-10-16T08:11:18;14.40;99.90
18160;DHT22;9205;52.032;4.314;2022-10-16T08:13:45;14.40;99.90
18160;DHT22;9205;52.032;4.314;2022-10-16T08:16:13;14.40;99.90
18160;DHT22;9205;52.032;4.314;2022-10-16T08:18:41;14.50;99.90
18160;DHT22;9205;52.032;4.314;2022-10-16T08:21:13;14.60;99.90
18160;DHT22;9205;52.032;4.314;2022-10-16T08:23:41;14.40;99.90
18160;DHT22;9205;52.032;4.314;2022-10-16T08:26:11;14.60;99.90
18160;DHT22;9205;52.032;4.314;2022-10-16T08:28:40;14.60;99.90
18160;DHT22;9205;52.032;4.314;2022-10-16T08:31:09;14.40;99.90
18160;DHT22;9205;52.032;4.314;2022-10-16T08:33:38;14.60;99.90
18160;DHT22;9205;52.032;4.314;2022-10-16T08:36:07;14.50;99.90
18160;DHT22;9205;52.032;4.314;2022-10-16T08:38:36;14.70;99.90
18160;DHT22;9205;52.032;4.314;2022-10-16T08:41:19;14.70;99.90
18160;DHT22;9205;52.032;4.314;2022-10-16T08:44:12;14.80;99.90
18160;DHT22;9205;52.032;4.314;2022-10-16T08:47:00;14.90;99.90
18160;DHT22;9205;52.032;4.314;2022-10-16T08:49:33;14.70;99.90
18160;DHT22;9205;52.032;4.314;2022-10-16T08:52:00;14.70;99.90
18160;DHT22;9205;52.032;4.314;2022-10-16T08:54:31;14.80;99.90
18160;DHT22;9205;52.032;4.314;2022-10-16T08:57:11;14.80;99.90
18160;DHT22;9205;52.032;4.314;2022-10-16T08:59:41;15.00;99.90
18160;DHT22;9205;52.032;4.314;2022-10-16T09:02:23;15.10;99.90
18160;DHT22;9205;52.032;4.314;2022-10-16T09:05:05;15.10;99.90
18160;DHT22;9205;52.032;4.314;2022-10-16T09:07:47;15.00;99.90
18160;DHT22;9205;52.032;4.314;2022-10-16T09:10:31;15.10;99.90
18160;DHT22;9205;52.032;4.314;2022-10-16T09:13:17;15.00;99.90
18160;DHT22;9205;52.032;4.314;2022-10-16T09:15:53;15.00;99.90
18160;DHT22;9205;52.032;4.314;2022-10-16T09:18:29;15.10;99.90
18160;DHT22;9205;52.032;4.314;2022-10-16T09:21:09;15.30;99.90
18160;DHT22;9205;52.032;4.314;2022-10-16T09:23:42;15.40;99.90
18160;DHT22;9205;52.032;4.314;2022-10-16T09:26:13;15.20;99.90
18160;DHT22;9205;52.032;4.314;2022-10-16T09:28:44;15.40;99.90
18160;DHT22;9205;52.032;4.314;2022-10-16T09:31:20;15.40;99.90
18160;DHT22;9205;52.032;4.314;2022-10-16T09:33:52;15.50;99.90
18160;DHT22;9205;52.032;4.314;2022-10-16T09:36:23;15.50;99.90
18160;DHT22;9205;52.032;4.314;2022-10-16T09:39:03;15.40;99.90
18160;DHT22;9205;52.032;4.314;2022-10-16T09:41:38;15.30;99.90
18160;DHT22;9205;52.032;4.314;2022-10-16T09:44:22;15.50;99.90
18160;DHT22;9205;52.032;4.314;2022-10-16T09:47:02;15.50;99.90
18160;DHT22;9205;52.032;4.314;2022-10-16T09:49:30;15.40;99.90
18160;DHT22;9205;52.032;4.314;2022-10-16T09:52:05;15.60;99.90
18160;DHT22;9205;52.032;4.314;2022-10-16T09:54:49;15.50;99.90
18160;DHT22;9205;52.032;4.314;2022-10-16T09:57:18;15.50;99.90
18160;DHT22;9205;52.032;4.314;2022-10-16T09:59:49;15.70;99.90
18160;DHT22;9205;52.032;4.314;2022-10-16T10:02:19;15.40;99.90
18160;DHT22;9205;52.032;4.314;2022-10-16T10:04:55;15.60;99.90
18160;DHT22;9205;52.032;4.314;2022-10-16T10:07:25;15.70;99.90
18160;DHT22;9205;52.032;4.314;2022-10-16T10:09:57;15.60;99.90
18160;DHT22;9205;52.032;4.314;2022-10-16T10:12:26;15.50;99.90
18160;DHT22;9205;52.032;4.314;2022-10-16T10:14:57;15.60;99.90
18160;DHT22;9205;52.032;4.314;2022-10-16T10:17:30;15.60;99.90
18160;DHT22;9205;52.032;4.314;2022-10-16T10:19:59;15.60;99.90
18160;DHT22;9205;52.032;4.314;2022-10-16T10:22:42;15.60;99.90
18160;DHT22;9205;52.032;4.314;2022-10-16T10:25:22;15.70;99.90
18160;DHT22;9205;52.032;4.314;2022-10-16T10:28:24;15.70;99.90
18160;DHT22;9205;52.032;4.314;2022-10-16T10:31:07;15.70;99.90
18160;DHT22;9205;52.032;4.314;2022-10-16T10:33:44;15.70;99.90
18160;DHT22;9205;52.032;4.314;2022-10-16T10:36:24;15.70;99.90
18160;DHT22;9205;52.032;4.314;2022-10-16T10:38:58;15.80;99.90
18160;DHT22;9205;52.032;4.314;2022-10-16T10:41:53;15.80;99.90
18160;DHT22;9205;52.032;4.314;2022-10-16T10:47:40;15.90;99.90
18160;DHT22;9205;52.032;4.314;2022-10-16T10:50:22;16.00;99.90
18160;DHT22;9205;52.032;4.314;2022-10-16T10:52:59;16.00;99.90
18160;DHT22;9205;52.032;4.314;2022-10-16T10:55:38;16.10;99.90
18160;DHT22;9205;52.032;4.314;2022-10-16T10:58:21;16.20;99.90
18160;DHT22;9205;52.032;4.314;2022-10-16T11:01:03;16.10;99.90
18160;DHT22;9205;52.032;4.314;2022-10-16T11:04:00;16.20;99.90
18160;DHT22;9205;52.032;4.314;2022-10-16T11:06:45;16.10;99.90
18160;DHT22;9205;52.032;4.314;2022-10-16T11:09:19;16.20;99.90
18160;DHT22;9205;52.032;4.314;2022-10-16T11:11:52;16.30;99.90
18160;DHT22;9205;52.032;4.314;2022-10-16T11:14:28;16.30;99.90
18160;DHT22;9205;52.032;4.314;2022-10-16T11:17:05;16.40;99.90
18160;DHT22;9205;52.032;4.314;2022-10-16T11:19:43;16.40;99.90
18160;DHT22;9205;52.032;4.314;2022-10-16T11:22:19;16.40;99.90
18160;DHT22;9205;52.032;4.314;2022-10-16T11:24:54;16.40;99.90
18160;DHT22;9205;52.032;4.314;2022-10-16T11:27:35;16.40;99.90
18160;DHT22;9205;52.032;4.314;2022-10-16T11:30:12;16.40;99.90
18160;DHT22;9205;52.032;4.314;2022-10-16T11:32:52;16.30;99.90
18160;DHT22;9205;52.032;4.314;2022-10-16T11:35:37;16.40;99.90
18160;DHT22;9205;52.032;4.314;2022-10-16T11:38:14;16.40;99.90
18160;DHT22;9205;52.032;4.314;2022-10-16T11:40:50;16.50;99.90
18160;DHT22;9205;52.032;4.314;2022-10-16T11:43:26;16.40;99.90
18160;DHT22;9205;52.032;4.314;2022-10-16T11:46:07;16.50;99.90
18160;DHT22;9205;52.032;4.314;2022-10-16T11:48:43;16.40;99.90
18160;DHT22;9205;52.032;4.314;2022-10-16T11:51:26;16.50;99.90
18160;DHT22;9205;52.032;4.314;2022-10-16T11:54:08;16.70;99.90
18160;DHT22;9205;52.032;4.314;2022-10-16T11:56:49;16.70;99.90
18160;DHT22;9205;52.032;4.314;2022-10-16T11:59:27;16.70;99.90
18160;DHT22;9205;52.032;4.314;2022-10-16T12:02:11;16.80;99.90
18160;DHT22;9205;52.032;4.314;2022-10-16T12:05:01;16.80;99.90
18160;DHT22;9205;52.032;4.314;2022-10-16T12:07:43;16.90;99.90
18160;DHT22;9205;52.032;4.314;2022-10-16T12:10:22;16.80;99.90
18160;DHT22;9205;52.032;4.314;2022-10-16T12:12:51;16.90;99.90
18160;DHT22;9205;52.032;4.314;2022-10-16T12:15:22;16.80;99.90
18160;DHT22;9205;52.032;4.314;2022-10-16T12:17:52;16.80;99.90
18160;DHT22;9205;52.032;4.314;2022-10-16T12:20:24;16.90;99.90
18160;DHT22;9205;52.032;4.314;2022-10-16T12:22:59;16.80;99.90
18160;DHT22;9205;52.032;4.314;2022-10-16T12:25:30;16.90;99.90
18160;DHT22;9205;52.032;4.314;2022-10-16T12:28:01;16.90;99.90
18160;DHT22;9205;52.032;4.314;2022-10-16T12:30:32;16.90;99.90
18160;DHT22;9205;52.032;4.314;2022-10-16T12:33:03;16.80;99.90
18160;DHT22;9205;52.032;4.314;2022-10-16T12:35:43;16.70;99.90
18160;DHT22;9205;52.032;4.314;2022-10-16T12:38:24;16.70;99.90
18160;DHT22;9205;52.032;4.314;2022-10-16T12:40:59;16.60;99.90
18160;DHT22;9205;52.032;4.314;2022-10-16T12:43:39;16.60;99.90
18160;DHT22;9205;52.032;4.314;2022-10-16T12:46:36;16.50;99.90
18160;DHT22;9205;52.032;4.314;2022-10-16T12:49:22;16.60;99.90
18160;DHT22;9205;52.032;4.314;2022-10-16T12:51:57;16.60;99.90
18160;DHT22;9205;52.032;4.314;2022-10-16T12:54:28;16.60;99.90
18160;DHT22;9205;52.032;4.314;2022-10-16T12:57:22;16.70;99.90
18160;DHT22;9205;52.032;4.314;2022-10-16T13:00:03;16.70;99.90
18160;DHT22;9205;52.032;4.314;2022-10-16T13:02:58;16.60;99.90
18160;DHT22;9205;52.032;4.314;2022-10-16T13:05:54;16.60;99.90
18160;DHT22;9205;52.032;4.314;2022-10-16T13:11:49;16.70;99.90
18160;DHT22;9205;52.032;4.314;2022-10-16T13:14:53;16.70;99.90
18160;DHT22;9205;52.032;4.314;2022-10-16T13:17:37;16.70;99.90
18160;DHT22;9205;52.032;4.314;2022-10-16T13:20:16;16.60;99.90
18160;DHT22;9205;52.032;4.314;2022-10-16T13:22:56;16.60;99.90
18160;DHT22;9205;52.032;4.314;2022-10-16T13:25:39;16.60;99.90
18160;DHT22;9205;52.032;4.314;2022-10-16T13:28:19;16.60;99.90
18160;DHT22;9205;52.032;4.314;2022-10-16T13:30:55;16.60;99.90
18160;DHT22;9205;52.032;4.314;2022-10-16T13:33:31;16.70;99.90
18160;DHT22;9205;52.032;4.314;2022-10-16T13:36:00;16.70;99.90
18160;DHT22;9205;52.032;4.314;2022-10-16T13:38:29;16.70;99.90
18160;DHT22;9205;52.032;4.314;2022-10-16T13:41:00;16.70;99.90
18160;DHT22;9205;52.032;4.314;2022-10-16T13:43:33;16.70;99.90
18160;DHT22;9205;52.032;4.314;2022-10-16T13:46:04;16.70;99.90
18160;DHT22;9205;52.032;4.314;2022-10-16T13:48:33;16.60;99.90
18160;DHT22;9205;52.032;4.314;2022-10-16T13:51:04;16.60;99.90
18160;DHT22;9205;52.032;4.314;2022-10-16T13:53:34;16.70;99.90
18160;DHT22;9205;52.032;4.314;2022-10-16T13:56:05;16.70;99.90
18160;DHT22;9205;52.032;4.314;2022-10-16T13:58:34;16.60;99.90
18160;DHT22;9205;52.032;4.314;2022-10-16T14:01:04;16.60;99.90
18160;DHT22;9205;52.032;4.314;2022-10-16T14:03:33;16.50;99.90
18160;DHT22;9205;52.032;4.314;2022-10-16T14:06:04;16.50;99.90
18160;DHT22;9205;52.032;4.314;2022-10-16T14:08:42;16.50;99.90
18160;DHT22;9205;52.032;4.314;2022-10-16T14:11:11;16.50;99.90
18160;DHT22;9205;52.032;4.314;2022-10-16T14:13:44;16.50;99.90
18160;DHT22;9205;52.032;4.314;2022-10-16T14:16:18;16.50;99.90
18160;DHT22;9205;52.032;4.314;2022-10-16T14:18:56;16.50;99.90
18160;DHT22;9205;52.032;4.314;2022-10-16T14:21:25;16.50;99.90
18160;DHT22;9205;52.032;4.314;2022-10-16T14:23:53;16.50;99.90
18160;DHT22;9205;52.032;4.314;2022-10-16T14:26:23;16.50;99.90
18160;DHT22;9205;52.032;4.314;2022-10-16T14:29:11;16.50;99.90
18160;DHT22;9205;52.032;4.314;2022-10-16T14:31:40;16.50;99.90
18160;DHT22;9205;52.032;4.314;2022-10-16T14:34:29;16.50;99.90
18160;DHT22;9205;52.032;4.314;2022-10-16T14:36:59;16.50;99.90
18160;DHT22;9205;52.032;4.314;2022-10-16T14:39:33;16.60;99.90
18160;DHT22;9205;52.032;4.314;2022-10-16T14:42:01;16.60;99.90
18160;DHT22;9205;52.032;4.314;2022-10-16T14:44:31;16.60;99.90
18160;DHT22;9205;52.032;4.314;2022-10-16T14:47:08;16.60;99.90
18160;DHT22;9205;52.032;4.314;2022-10-16T14:49:41;16.60;99.90
18160;DHT22;9205;52.032;4.314;2022-10-16T14:52:10;16.60;99.90
18160;DHT22;9205;52.032;4.314;2022-10-16T14:54:39;16.60;99.90
18160;DHT22;9205;52.032;4.314;2022-10-16T14:57:16;16.60;99.90
18160;DHT22;9205;52.032;4.314;2022-10-16T14:59:47;16.50;99.90
18160;DHT22;9205;52.032;4.314;2022-10-16T15:02:20;16.50;99.90
18160;DHT22;9205;52.032;4.314;2022-10-16T15:04:52;16.60;99.90
18160;DHT22;9205;52.032;4.314;2022-10-16T15:07:19;16.50;99.90
18160;DHT22;9205;52.032;4.314;2022-10-16T15:09:47;16.50;99.90
18160;DHT22;9205;52.032;4.314;2022-10-16T15:12:14;16.50;99.90
18160;DHT22;9205;52.032;4.314;2022-10-16T15:14:41;16.50;99.90
18160;DHT22;9205;52.032;4.314;2022-10-16T15:17:13;16.50;99.90
18160;DHT22;9205;52.032;4.314;2022-10-16T15:19:41;16.50;99.90
18160;DHT22;9205;52.032;4.314;2022-10-16T15:22:09;16.40;99.90
18160;DHT22;9205;52.032;4.314;2022-10-16T15:24:38;16.40;99.90
18160;DHT22;9205;52.032;4.314;2022-10-16T15:27:05;16.40;99.90
18160;DHT22;9205;52.032;4.314;2022-10-16T15:29:32;16.40;99.90
18160;DHT22;9205;52.032;4.314;2022-10-16T15:31:59;16.40;99.90
18160;DHT22;9205;52.032;4.314;2022-10-16T15:34:28;16.40;99.90
18160;DHT22;9205;52.032;4.314;2022-10-16T15:36:55;16.30;99.90
18160;DHT22;9205;52.032;4.314;2022-10-16T15:39:23;16.30;99.90
18160;DHT22;9205;52.032;4.314;2022-10-16T15:41:50;16.20;99.90
18160;DHT22;9205;52.032;4.314;2022-10-16T15:44:18;16.30;99.90
18160;DHT22;9205;52.032;4.314;2022-10-16T15:46:48;16.30;99.90
18160;DHT22;9205;52.032;4.314;2022-10-16T15:49:15;16.20;99.90
18160;DHT22;9205;52.032;4.314;2022-10-16T15:51:45;16.10;99.90
18160;DHT22;9205;52.032;4.314;2022-10-16T15:54:12;16.10;99.90
18160;DHT22;9205;52.032;4.314;2022-10-16T15:56:40;16.10;99.90
18160;DHT22;9205;52.032;4.314;2022-10-16T15:59:07;16.20;99.90
18160;DHT22;9205;52.032;4.314;2022-10-16T16:01:35;16.10;99.90
18160;DHT22;9205;52.032;4.314;2022-10-16T16:04:03;16.10;99.90
18160;DHT22;9205;52.032;4.314;2022-10-16T16:06:31;16.10;99.90
18160;DHT22;9205;52.032;4.314;2022-10-16T16:08:59;16.00;99.90
18160;DHT22;9205;52.032;4.314;2022-10-16T16:11:26;15.90;99.90
18160;DHT22;9205;52.032;4.314;2022-10-16T16:13:54;15.90;99.90
18160;DHT22;9205;52.032;4.314;2022-10-16T16:16:21;15.90;99.90
18160;DHT22;9205;52.032;4.314;2022-10-16T16:18:53;15.90;99.90
18160;DHT22;9205;52.032;4.314;2022-10-16T16:21:21;15.90;99.90
18160;DHT22;9205;52.032;4.314;2022-10-16T16:23:50;15.80;99.90